createdAt,value
2022-09-28T00:01:29.655Z,97794.00
2022-09-28T00:03:59.719Z,97797.00
2022-09-28T00:06:31.265Z,97793.00
2022-09-28T00:09:01.270Z,97798.00
2022-09-28T00:11:29.774Z,97800.00
2022-09-28T00:14:02.274Z,97796.00
2022-09-28T00:16:34.409Z,97792.00
2022-09-28T00:19:04.964Z,97793.00
2022-09-28T00:21:39.544Z,97797.00
2022-09-28T00:24:16.008Z,97790.00
2022-09-28T00:26:48.357Z,97792.00
2022-09-28T00:29:28.943Z,97782.00
2022-09-28T00:32:02.362Z,97785.00
2022-09-28T00:34:33.004Z,97783.00
2022-09-28T00:37:04.666Z,97785.00
2022-09-28T00:39:33.019Z,97779.00
2022-09-28T00:42:01.240Z,97774.00
2022-09-28T00:44:44.773Z,97765.00
2022-09-28T00:47:44.122Z,97766.00
2022-09-28T00:50:21.428Z,97762.00
2022-09-28T00:52:56.772Z,97760.00
2022-09-28T00:55:34.586Z,97769.00
2022-09-28T00:58:07.662Z,97766.00
2022-09-28T01:00:35.949Z,97768.00
2022-09-28T01:03:05.123Z,97767.00
2022-09-28T01:05:34.731Z,97755.00
2022-09-28T01:08:05.389Z,97761.00
2022-09-28T01:10:34.633Z,97745.00
2022-09-28T01:13:02.580Z,97748.00
2022-09-28T01:15:33.922Z,97752.00
2022-09-28T01:18:13.469Z,97759.00
2022-09-28T01:21:02.397Z,97751.00
2022-09-28T01:24:14.979Z,97749.00
2022-09-28T01:27:16.385Z,97755.00
2022-09-28T01:29:55.925Z,97744.00
2022-09-28T01:32:37.246Z,97748.00
2022-09-28T01:35:13.153Z,97743.00
2022-09-28T01:37:51.922Z,97738.00
2022-09-28T01:40:23.054Z,97729.00
2022-09-28T01:42:59.236Z,97736.00
2022-09-28T01:45:33.661Z,97726.00
2022-09-28T01:48:07.043Z,97735.00
2022-09-28T01:50:41.841Z,97731.00
2022-09-28T01:53:18.083Z,97721.00
2022-09-28T01:55:54.142Z,97724.00
2022-09-28T01:58:31.891Z,97719.00
2022-09-28T02:01:09.739Z,97716.00
2022-09-28T02:03:47.801Z,97709.00
2022-09-28T02:06:26.279Z,97712.00
2022-09-28T02:09:00.867Z,97705.00
2022-09-28T02:11:44.199Z,97708.00
2022-09-28T02:14:17.433Z,97701.00
2022-09-28T02:16:49.940Z,97703.00
2022-09-28T02:19:28.989Z,97707.00
2022-09-28T02:22:04.961Z,97708.00
2022-09-28T02:24:42.239Z,97701.00
2022-09-28T02:27:29.739Z,97697.00
2022-09-28T02:29:59.111Z,97693.00
2022-09-28T02:32:30.396Z,97691.00
2022-09-28T02:34:59.316Z,97693.00
2022-09-28T02:37:32.604Z,97691.00
2022-09-28T02:40:03.234Z,97680.00
2022-09-28T02:42:45.099Z,97686.00
2022-09-28T02:45:28.998Z,97679.00
2022-09-28T02:48:12.326Z,97676.00
2022-09-28T02:50:53.354Z,97671.00
2022-09-28T02:53:46.927Z,97662.00
2022-09-28T02:56:42.049Z,97654.00
2022-09-28T02:59:24.380Z,97661.00
2022-09-28T03:02:04.131Z,97657.00
2022-09-28T03:04:43.083Z,97663.00
2022-09-28T03:07:27.588Z,97656.00
2022-09-28T03:10:04.325Z,97664.00
2022-09-28T03:12:34.487Z,97665.00
2022-09-28T03:15:13.478Z,97669.00
2022-09-28T03:17:43.500Z,97670.00
2022-09-28T03:20:12.425Z,97670.00
2022-09-28T03:22:40.924Z,97668.00
2022-09-28T03:25:10.211Z,97668.00
2022-09-28T03:27:40.125Z,97674.00
2022-09-28T03:30:10.858Z,97665.00
2022-09-28T03:32:40.876Z,97665.00
2022-09-28T03:35:11.729Z,97659.00
2022-09-28T03:37:39.708Z,97662.00
2022-09-28T03:40:08.784Z,97659.00
2022-09-28T03:42:38.665Z,97653.00
2022-09-28T03:45:08.168Z,97649.00
2022-09-28T03:47:36.878Z,97655.00
2022-09-28T03:50:06.674Z,97652.00
2022-09-28T03:52:38.005Z,97635.00
2022-09-28T03:55:07.110Z,97636.00
2022-09-28T03:57:35.699Z,97625.00
2022-09-28T04:00:03.997Z,97625.00
2022-09-28T04:02:41.512Z,97627.00
2022-09-28T04:05:10.256Z,97627.00
2022-09-28T04:07:40.295Z,97635.00
2022-09-28T04:10:09.907Z,97625.00
2022-09-28T04:12:37.890Z,97613.00
2022-09-28T04:15:08.011Z,97605.00
2022-09-28T04:17:39.935Z,97599.00
2022-09-28T04:20:12.738Z,97603.00
2022-09-28T04:23:01.565Z,97604.00
2022-09-28T04:25:30.065Z,97595.00
2022-09-28T04:28:17.110Z,97591.00
2022-09-28T04:30:47.607Z,97591.00
2022-09-28T04:33:15.560Z,97580.00
2022-09-28T04:35:43.563Z,97582.00
2022-09-28T04:38:12.777Z,97578.00
2022-09-28T04:40:41.375Z,97570.00
2022-09-28T04:43:09.400Z,97563.00
2022-09-28T04:45:37.545Z,97548.00
2022-09-28T04:48:09.634Z,97568.00
2022-09-28T04:51:01.869Z,97565.00
2022-09-28T04:53:31.673Z,97562.00
2022-09-28T04:56:02.433Z,97558.00
2022-09-28T04:58:32.598Z,97560.00
2022-09-28T05:01:03.330Z,97558.00
2022-09-28T05:03:59.992Z,97562.00
2022-09-28T05:06:46.294Z,97562.00
2022-09-28T05:09:16.031Z,97558.00
2022-09-28T05:11:45.426Z,97549.00
2022-09-28T05:14:18.070Z,97556.00
2022-09-28T05:16:46.867Z,97537.00
2022-09-28T05:19:35.960Z,97536.00
2022-09-28T05:22:06.101Z,97541.00
2022-09-28T05:24:42.761Z,97542.00
2022-09-28T05:27:10.784Z,97539.00
2022-09-28T05:29:38.777Z,97530.00
2022-09-28T05:32:25.556Z,97525.00
2022-09-28T05:35:08.244Z,97526.00
2022-09-28T05:37:42.403Z,97528.00
2022-09-28T05:40:12.731Z,97513.00
2022-09-28T05:42:41.481Z,97512.00
2022-09-28T05:45:11.192Z,97504.00
2022-09-28T05:47:43.967Z,97497.00
2022-09-28T05:50:15.650Z,97497.00
2022-09-28T05:52:44.781Z,97502.00
2022-09-28T05:55:14.440Z,97482.00
2022-09-28T05:57:42.948Z,97493.00
2022-09-28T06:00:12.691Z,97489.00
2022-09-28T06:02:40.993Z,97493.00
2022-09-28T06:05:12.453Z,97490.00
2022-09-28T06:07:40.458Z,97484.00
2022-09-28T06:10:09.519Z,97481.00
2022-09-28T06:12:47.786Z,97475.00
2022-09-28T06:15:17.426Z,97473.00
2022-09-28T06:17:46.696Z,97470.00
2022-09-28T06:20:41.044Z,97465.00
2022-09-28T06:23:19.144Z,97463.00
2022-09-28T06:25:47.076Z,97464.00
2022-09-28T06:28:18.293Z,97462.00
2022-09-28T06:30:48.167Z,97469.00
2022-09-28T06:33:18.801Z,97467.00
2022-09-28T06:35:47.147Z,97468.00
2022-09-28T06:38:15.123Z,97473.00
2022-09-28T06:40:43.143Z,97467.00
2022-09-28T06:43:15.182Z,97463.00
2022-09-28T06:46:04.128Z,97473.00
2022-09-28T06:48:51.210Z,97464.00
2022-09-28T06:51:22.714Z,97468.00
2022-09-28T06:53:58.742Z,97456.00
2022-09-28T06:56:49.210Z,97466.00
2022-09-28T06:59:17.130Z,97477.00
2022-09-28T07:01:46.501Z,97474.00
2022-09-28T07:04:29.244Z,97486.00
2022-09-28T07:07:20.579Z,97475.00
2022-09-28T07:09:59.208Z,97482.00
2022-09-28T07:12:49.856Z,97481.00
2022-09-28T07:15:29.375Z,97485.00
2022-09-28T07:18:03.115Z,97485.00
2022-09-28T07:20:35.471Z,97486.00
2022-09-28T07:23:18.224Z,97486.00
2022-09-28T07:26:08.921Z,97483.00
2022-09-28T07:28:56.243Z,97501.00
2022-09-28T07:31:46.669Z,97495.00
2022-09-28T07:34:48.736Z,97495.00
2022-09-28T07:37:26.629Z,97492.00
2022-09-28T07:40:13.302Z,97489.00
2022-09-28T07:42:41.632Z,97482.00
2022-09-28T07:45:11.610Z,97496.00
2022-09-28T07:47:39.627Z,97494.00
2022-09-28T07:50:36.866Z,97494.00
2022-09-28T07:53:15.851Z,97494.00
2022-09-28T07:56:07.191Z,97498.00
2022-09-28T07:58:42.061Z,97495.00
2022-09-28T08:01:49.854Z,97492.00
2022-09-28T08:04:18.821Z,97489.00
2022-09-28T08:06:49.374Z,97495.00
2022-09-28T08:09:17.618Z,97493.00
2022-09-28T08:12:22.259Z,97490.00
2022-09-28T08:15:02.122Z,97495.00
2022-09-28T08:17:38.335Z,97496.00
2022-09-28T08:20:27.869Z,97494.00
2022-09-28T08:22:57.295Z,97486.00
2022-09-28T08:25:25.428Z,97493.00
2022-09-28T08:27:53.393Z,97492.00
2022-09-28T08:30:22.332Z,97489.00
2022-09-28T08:33:07.527Z,97489.00
2022-09-28T08:35:45.889Z,97496.00
2022-09-28T08:38:18.816Z,97490.00
2022-09-28T08:41:19.397Z,97484.00
2022-09-28T08:44:24.015Z,97485.00
2022-09-28T08:47:32.671Z,97485.00
2022-09-28T08:50:25.103Z,97475.00
2022-09-28T08:53:36.790Z,97478.00
2022-09-28T08:56:25.213Z,97470.00
2022-09-28T08:58:59.759Z,97476.00
2022-09-28T09:01:42.236Z,97484.00
2022-09-28T09:04:14.964Z,97470.00
2022-09-28T09:07:43.935Z,97473.00
2022-09-28T09:10:38.871Z,97479.00
2022-09-28T09:13:34.574Z,97472.00
2022-09-28T09:16:14.557Z,97475.00
2022-09-28T09:19:40.097Z,97480.00
2022-09-28T09:22:39.336Z,97482.00
2022-09-28T09:25:22.472Z,97475.00
2022-09-28T09:28:38.281Z,97492.00
2022-09-28T09:31:26.634Z,97490.00
2022-09-28T09:34:42.795Z,97503.00
2022-09-28T09:38:02.301Z,97503.00
2022-09-28T09:41:07.731Z,97492.00
2022-09-28T09:44:27.127Z,97495.00
2022-09-28T09:47:15.543Z,97484.00
2022-09-28T09:49:57.847Z,97484.00
2022-09-28T09:55:20.387Z,97470.00
2022-09-28T09:58:05.351Z,97471.00
2022-09-28T10:00:43.109Z,97480.00
2022-09-28T10:03:25.841Z,97486.00
2022-09-28T10:06:01.497Z,97477.00
2022-09-28T10:08:32.068Z,97483.00
2022-09-28T10:11:11.322Z,97481.00
2022-09-28T10:13:44.633Z,97482.00
2022-09-28T10:16:34.293Z,97478.00
2022-09-28T10:19:03.558Z,97482.00
2022-09-28T10:21:54.954Z,97483.00
2022-09-28T10:24:33.121Z,97489.00
2022-09-28T10:27:08.446Z,97480.00
2022-09-28T10:29:50.657Z,97477.00
2022-09-28T10:32:25.194Z,97471.00
2022-09-28T10:35:24.162Z,97483.00
2022-09-28T10:38:04.543Z,97480.00
2022-09-28T10:40:48.189Z,97483.00
2022-09-28T10:43:25.885Z,97487.00
2022-09-28T10:46:07.977Z,97495.00
2022-09-28T10:48:51.268Z,97492.00
2022-09-28T10:51:21.799Z,97489.00
2022-09-28T10:54:02.007Z,97501.00
2022-09-28T10:56:47.476Z,97499.00
2022-09-28T10:59:41.959Z,97509.00
2022-09-28T11:02:35.900Z,97515.00
2022-09-28T11:05:28.139Z,97503.00
2022-09-28T11:08:03.858Z,97517.00
2022-09-28T11:10:39.485Z,97515.00
2022-09-28T11:13:14.679Z,97517.00
2022-09-28T11:15:48.446Z,97516.00
2022-09-28T11:18:32.385Z,97518.00
2022-09-28T11:21:16.562Z,97523.00
2022-09-28T11:24:01.896Z,97514.00
2022-09-28T11:26:40.752Z,97512.00
2022-09-28T11:29:31.836Z,97519.00
2022-09-28T11:32:25.095Z,97527.00
2022-09-28T11:35:20.723Z,97519.00
2022-09-28T11:38:09.057Z,97526.00
2022-09-28T11:41:23.926Z,97526.00
2022-09-28T11:44:33.266Z,97530.00
2022-09-28T11:47:46.725Z,97533.00
2022-09-28T11:50:29.306Z,97528.00
2022-09-28T11:53:14.936Z,97530.00
2022-09-28T11:55:52.181Z,97539.00
2022-09-28T11:58:30.850Z,97541.00
2022-09-28T12:01:06.840Z,97549.00
2022-09-28T12:04:04.879Z,97546.00
2022-09-28T12:06:43.584Z,97542.00
2022-09-28T12:09:20.861Z,97548.00
2022-09-28T12:12:10.374Z,97543.00
2022-09-28T12:14:47.382Z,97541.00
2022-09-28T12:17:24.506Z,97539.00
2022-09-28T12:20:02.447Z,97541.00
2022-09-28T12:22:38.849Z,97544.00
2022-09-28T12:25:15.520Z,97546.00
2022-09-28T12:27:52.140Z,97545.00
2022-09-28T12:30:22.722Z,97547.00
2022-09-28T12:32:55.821Z,97549.00
2022-09-28T12:35:36.916Z,97552.00
2022-09-28T12:38:54.158Z,97551.00
2022-09-28T12:41:53.770Z,97551.00
2022-09-28T12:44:52.886Z,97550.00
2022-09-28T12:48:09.390Z,97552.00
2022-09-28T12:50:55.999Z,97553.00
2022-09-28T12:53:51.278Z,97562.00
2022-09-28T12:56:34.476Z,97562.00
2022-09-28T12:59:18.078Z,97563.00
2022-09-28T13:02:12.349Z,97563.00
2022-09-28T13:05:19.042Z,97568.00
2022-09-28T13:07:58.863Z,97571.00
2022-09-28T13:10:36.998Z,97573.00
2022-09-28T13:13:32.573Z,97578.00
2022-09-28T13:16:10.620Z,97571.00
2022-09-28T13:18:52.281Z,97572.00
2022-09-28T13:21:32.104Z,97574.00
2022-09-28T13:24:14.839Z,97588.00
2022-09-28T13:26:59.453Z,97589.00
2022-09-28T13:29:28.696Z,97598.00
2022-09-28T13:32:00.142Z,97609.00
2022-09-28T13:34:31.829Z,97604.00
2022-09-28T13:37:21.517Z,97611.00
2022-09-28T13:39:52.695Z,97621.00
2022-09-28T13:43:01.233Z,97630.00
2022-09-28T13:45:50.618Z,97631.00
2022-09-28T13:48:22.577Z,97637.00
2022-09-28T13:51:22.776Z,97623.00
2022-09-28T13:54:22.878Z,97624.00
2022-09-28T13:57:03.917Z,97614.00
2022-09-28T13:59:45.520Z,97629.00
2022-09-28T14:02:31.673Z,97623.00
2022-09-28T14:05:05.084Z,97622.00
2022-09-28T14:08:20.793Z,97627.00
2022-09-28T14:10:52.569Z,97625.00
2022-09-28T14:14:02.929Z,97625.00
2022-09-28T14:16:34.908Z,97632.00
2022-09-28T14:19:09.804Z,97629.00
2022-09-28T14:22:03.580Z,97637.00
2022-09-28T14:25:01.670Z,97631.00
2022-09-28T14:28:03.355Z,97632.00
2022-09-28T14:30:49.397Z,97640.00
2022-09-28T14:33:27.406Z,97641.00
2022-09-28T14:35:58.829Z,97642.00
2022-09-28T14:38:50.756Z,97652.00
2022-09-28T14:41:34.442Z,97658.00
2022-09-28T14:44:09.428Z,97656.00
2022-09-28T14:46:45.401Z,97665.00
2022-09-28T14:49:51.352Z,97673.00
2022-09-28T14:52:39.822Z,97665.00
2022-09-28T14:55:18.199Z,97668.00
2022-09-28T14:57:53.292Z,97676.00
2022-09-28T15:00:25.860Z,97661.00
2022-09-28T15:03:01.410Z,97673.00
2022-09-28T15:05:37.214Z,97670.00
2022-09-28T15:08:07.927Z,97671.00
2022-09-28T15:10:42.002Z,97671.00
2022-09-28T15:13:21.965Z,97674.00
2022-09-28T15:15:54.446Z,97673.00
2022-09-28T15:18:55.374Z,97674.00
2022-09-28T15:21:31.921Z,97671.00
2022-09-28T15:23:59.812Z,97676.00
2022-09-28T15:26:32.676Z,97679.00
2022-09-28T15:29:03.907Z,97684.00
2022-09-28T15:31:36.691Z,97691.00
2022-09-28T15:34:22.155Z,97690.00
2022-09-28T15:36:52.156Z,97689.00
2022-09-28T15:39:28.612Z,97690.00
2022-09-28T15:41:57.133Z,97689.00
2022-09-28T15:44:34.069Z,97695.00
2022-09-28T15:47:12.849Z,97696.00
2022-09-28T15:49:46.398Z,97705.00
2022-09-28T15:52:37.401Z,97711.00
2022-09-28T15:55:21.609Z,97714.00
2022-09-28T15:57:50.433Z,97710.00
2022-09-28T16:00:29.143Z,97717.00
2022-09-28T16:03:22.359Z,97719.00
2022-09-28T16:05:53.395Z,97717.00
2022-09-28T16:08:37.600Z,97725.00
2022-09-28T16:11:15.340Z,97723.00
2022-09-28T16:14:08.813Z,97732.00
2022-09-28T16:16:46.661Z,97735.00
2022-09-28T16:19:25.451Z,97737.00
2022-09-28T16:21:57.630Z,97735.00
2022-09-28T16:24:32.284Z,97725.00
2022-09-28T16:27:04.525Z,97741.00
2022-09-28T16:29:39.710Z,97747.00
2022-09-28T16:32:38.499Z,97743.00
2022-09-28T16:35:29.037Z,97751.00
2022-09-28T16:38:05.720Z,97753.00
2022-09-28T16:40:35.413Z,97756.00
2022-09-28T16:43:07.904Z,97760.00
2022-09-28T16:45:36.843Z,97766.00
2022-09-28T16:48:05.796Z,97762.00
2022-09-28T16:50:33.729Z,97774.00
2022-09-28T16:53:31.018Z,97782.00
2022-09-28T16:56:01.646Z,97779.00
2022-09-28T16:58:31.259Z,97781.00
2022-09-28T17:00:59.934Z,97780.00
2022-09-28T17:03:30.011Z,97782.00
2022-09-28T17:05:58.129Z,97787.00
2022-09-28T17:08:27.406Z,97780.00
2022-09-28T17:11:18.151Z,97787.00
2022-09-28T17:13:48.495Z,97792.00
2022-09-28T17:16:21.002Z,97799.00
2022-09-28T17:18:53.271Z,97795.00
2022-09-28T17:21:22.002Z,97797.00
2022-09-28T17:23:51.202Z,97796.00
2022-09-28T17:26:27.148Z,97800.00
2022-09-28T17:28:56.383Z,97794.00
2022-09-28T17:31:24.380Z,97800.00
2022-09-28T17:33:52.787Z,97810.00
2022-09-28T17:36:22.054Z,97819.00
2022-09-28T17:38:51.725Z,97818.00
2022-09-28T17:41:22.232Z,97818.00
2022-09-28T17:43:50.589Z,97822.00
2022-09-28T17:46:29.845Z,97817.00
2022-09-28T17:48:59.619Z,97817.00
2022-09-28T17:51:30.166Z,97822.00
2022-09-28T17:54:00.914Z,97833.00
2022-09-28T17:56:32.521Z,97831.00
2022-09-28T17:59:04.756Z,97830.00
2022-09-28T18:01:35.312Z,97825.00
2022-09-28T18:04:05.875Z,97831.00
2022-09-28T18:06:34.579Z,97823.00
2022-09-28T18:09:04.227Z,97831.00
2022-09-28T18:11:34.145Z,97832.00
2022-09-28T18:14:02.829Z,97841.00
2022-09-28T18:16:30.971Z,97842.00
2022-09-28T18:19:00.860Z,97835.00
2022-09-28T18:21:32.108Z,97838.00
2022-09-28T18:24:00.233Z,97839.00
2022-09-28T18:26:28.486Z,97840.00
2022-09-28T18:28:56.899Z,97844.00
2022-09-28T18:31:25.242Z,97844.00
2022-09-28T18:34:01.483Z,97842.00
2022-09-28T18:36:30.620Z,97847.00
2022-09-28T18:39:01.469Z,97853.00
2022-09-28T18:41:29.913Z,97848.00
2022-09-28T18:44:00.802Z,97849.00
2022-09-28T18:46:30.244Z,97857.00
2022-09-28T18:48:59.918Z,97859.00
2022-09-28T18:51:27.998Z,97865.00
2022-09-28T18:53:56.336Z,97854.00
2022-09-28T18:56:25.649Z,97867.00
2022-09-28T18:58:53.821Z,97864.00
2022-09-28T19:01:30.079Z,97868.00
2022-09-28T19:04:02.171Z,97867.00
2022-09-28T19:06:32.887Z,97876.00
2022-09-28T19:09:01.870Z,97865.00
2022-09-28T19:11:30.171Z,97863.00
2022-09-28T19:13:58.170Z,97875.00
2022-09-28T19:16:29.321Z,97866.00
2022-09-28T19:19:00.910Z,97879.00
2022-09-28T19:21:29.107Z,97881.00
2022-09-28T19:23:57.388Z,97880.00
2022-09-28T19:26:28.763Z,97882.00
2022-09-28T19:28:58.204Z,97870.00
2022-09-28T19:31:27.735Z,97879.00
2022-09-28T19:33:55.801Z,97884.00
2022-09-28T19:36:28.479Z,97881.00
2022-09-28T19:38:58.362Z,97879.00
2022-09-28T19:41:43.330Z,97873.00
2022-09-28T19:44:15.803Z,97882.00
2022-09-28T19:46:44.354Z,97887.00
2022-09-28T19:49:19.327Z,97885.00
2022-09-28T19:54:38.328Z,97887.00
2022-09-28T19:57:08.454Z,97884.00
2022-09-28T19:59:37.931Z,97889.00
2022-09-28T20:02:07.549Z,97890.00
2022-09-28T20:04:35.781Z,97891.00
2022-09-28T20:07:05.719Z,97892.00
2022-09-28T20:09:34.215Z,97902.00
2022-09-28T20:12:02.734Z,97893.00
2022-09-28T20:14:34.229Z,97897.00
2022-09-28T20:17:06.006Z,97905.00
2022-09-28T20:19:34.949Z,97914.00
2022-09-28T20:22:05.072Z,97909.00
2022-09-28T20:24:33.763Z,97907.00
2022-09-28T20:27:02.419Z,97907.00
2022-09-28T20:29:33.139Z,97913.00
2022-09-28T20:32:03.872Z,97916.00
2022-09-28T20:34:34.472Z,97908.00
2022-09-28T20:37:03.899Z,97916.00
2022-09-28T20:39:32.034Z,97919.00
2022-09-28T20:42:00.162Z,97922.00
2022-09-28T20:44:28.200Z,97926.00
2022-09-28T20:46:56.686Z,97926.00
2022-09-28T20:49:24.838Z,97923.00
2022-09-28T20:51:52.896Z,97929.00
2022-09-28T20:54:23.110Z,97926.00
2022-09-28T20:56:51.320Z,97936.00
2022-09-28T20:59:20.265Z,97934.00
2022-09-28T21:01:48.472Z,97938.00
2022-09-28T21:04:16.680Z,97937.00
2022-09-28T21:06:45.078Z,97942.00
2022-09-28T21:09:13.200Z,97939.00
2022-09-28T21:11:43.023Z,97940.00
2022-09-28T21:14:11.148Z,97953.00
2022-09-28T21:16:39.964Z,97952.00
2022-09-28T21:19:08.043Z,97949.00
2022-09-28T21:21:36.183Z,97947.00
2022-09-28T21:24:05.034Z,97955.00
2022-09-28T21:26:35.028Z,97958.00
2022-09-28T21:29:07.893Z,97957.00
2022-09-28T21:31:40.884Z,97958.00
2022-09-28T21:34:13.215Z,97963.00
2022-09-28T21:36:43.240Z,97958.00
2022-09-28T21:39:11.468Z,97971.00
2022-09-28T21:41:39.516Z,97978.00
2022-09-28T21:44:09.616Z,97979.00
2022-09-28T21:46:39.373Z,97977.00
2022-09-28T21:49:09.380Z,97970.00
2022-09-28T21:51:38.106Z,97979.00
2022-09-28T21:54:06.665Z,97979.00
2022-09-28T21:56:34.987Z,97978.00
2022-09-28T21:59:03.157Z,97983.00
2022-09-28T22:01:33.061Z,97981.00
2022-09-28T22:04:01.596Z,97972.00
2022-09-28T22:06:29.892Z,97984.00
2022-09-28T22:08:59.319Z,97984.00
2022-09-28T22:11:29.474Z,97986.00
2022-09-28T22:14:00.518Z,97986.00
2022-09-28T22:16:32.260Z,97981.00
2022-09-28T22:19:01.029Z,97982.00
2022-09-28T22:21:31.843Z,97986.00
2022-09-28T22:24:01.800Z,97986.00
2022-09-28T22:26:31.650Z,97987.00
2022-09-28T22:29:02.175Z,97989.00
2022-09-28T22:31:34.797Z,97981.00
2022-09-28T22:34:03.771Z,97994.00
2022-09-28T22:36:32.246Z,97973.00
2022-09-28T22:39:01.055Z,97985.00
2022-09-28T22:41:29.923Z,97979.00
2022-09-28T22:43:58.954Z,97979.00
2022-09-28T22:46:31.135Z,97981.00
2022-09-28T22:49:01.701Z,97986.00
2022-09-28T22:51:31.815Z,97985.00
2022-09-28T22:54:00.167Z,97984.00
2022-09-28T22:56:28.278Z,97991.00
2022-09-28T22:58:56.632Z,97988.00
2022-09-28T23:01:27.090Z,97993.00
2022-09-28T23:03:57.531Z,97991.00
2022-09-28T23:06:30.347Z,97988.00
2022-09-28T23:08:58.624Z,97990.00
2022-09-28T23:11:27.742Z,97993.00
2022-09-28T23:13:59.126Z,97993.00
2022-09-28T23:16:28.309Z,97992.00
2022-09-28T23:18:58.052Z,97999.00
2022-09-28T23:21:29.279Z,98000.00
2022-09-28T23:24:01.000Z,98002.00
2022-09-28T23:26:32.701Z,98001.00
2022-09-28T23:29:01.345Z,98001.00
2022-09-28T23:31:32.395Z,98002.00
2022-09-28T23:34:02.413Z,97997.00
2022-09-28T23:36:32.855Z,97997.00
2022-09-28T23:39:01.374Z,98006.00
2022-09-28T23:41:29.597Z,98004.00
2022-09-28T23:43:57.950Z,98002.00
2022-09-28T23:46:26.222Z,98007.00
2022-09-28T23:48:54.627Z,97999.00
2022-09-28T23:51:22.760Z,98002.00
2022-09-28T23:53:52.132Z,98010.00
2022-09-28T23:56:20.183Z,97991.00
2022-09-28T23:58:48.290Z,97997.00
